Time;durP1;ratioP1;P1;durP2;ratioP2;P2;SDS_P1;SDS_P2;PMS_P1;PMS_P2;Temp;Humidity;BMP_temperature;BMP_pressure;BME280_temperature;BME280_humidity;BME280_pressure;Samples;Min_cycle;Max_cycle;Signal;HPM_P1;HPM_P2
2024/01/29 00:00:58;;;;;;;9.63;5.00;;;4.60;1.00;;;;;;5029454;28;20041;-69
2024/01/29 00:03:24;;;;;;;9.20;5.22;;;;;;;;;;5014688;28;20120;-69
2024/01/29 00:05:51;;;;;;;9.82;4.82;;;;;;;;;;5013662;28;20044;-69
2024/01/29 00:08:17;;;;;;;11.52;5.28;;;;;;;;;;5013088;28;20042;-69
2024/01/29 00:10:42;;;;;;;8.30;5.07;;;4.60;99.90;;;;;;5014364;28;20042;-69
2024/01/29 00:13:09;;;;;;;11.77;5.03;;;;;;;;;;5012511;28;20109;-68
2024/01/29 00:15:35;;;;;;;9.95;4.88;;;;;;;;;;5016102;28;20033;-69
2024/01/29 00:18:01;;;;;;;9.48;5.35;;;;;;;;;;5019010;28;20096;-69
2024/01/29 00:20:27;;;;;;;12.18;5.28;;;;;;;;;;5013228;28;20045;-70
2024/01/29 00:22:53;;;;;;;9.50;5.13;;;;;;;;;;5014291;28;20525;-69
2024/01/29 00:25:19;;;;;;;9.20;4.95;;;;;;;;;;5010976;28;20121;-69
2024/01/29 00:27:45;;;;;;;8.50;5.45;;;;;;;;;;5016838;28;20124;-69
2024/01/29 00:30:12;;;;;;;7.88;4.85;;;;;;;;;;5018301;28;20180;-69
2024/01/29 00:32:40;;;;;;;14.23;5.40;;;4.30;1.00;;;;;;5017602;28;20050;-69
2024/01/29 00:35:06;;;;;;;8.73;5.05;;;;;;;;;;5016136;28;20128;-69
2024/01/29 00:37:32;;;;;;;7.95;4.88;;;;;;;;;;5116373;23;20135;-67
2024/01/29 00:39:58;;;;;;;12.65;5.55;;;;;;;;;;4982557;28;20125;-67
2024/01/29 00:42:24;;;;;;;8.45;5.10;;;4.30;1.00;;;;;;4986671;28;20042;-67
2024/01/29 00:44:50;;;;;;;9.00;5.03;;;;;;;;;;4986781;28;20046;-67
2024/01/29 00:47:16;;;;;;;10.43;6.05;;;;;;;;;;4981790;28;20491;-67
2024/01/29 00:49:42;;;;;;;9.63;5.32;;;;;;;;;;4985078;28;20435;-67
2024/01/29 00:52:08;;;;;;;9.07;5.13;;;4.10;1.00;;;;;;4983960;28;20096;-67
2024/01/29 00:54:34;;;;;;;8.60;5.18;;;;;;;;;;4987540;28;20437;-67
2024/01/29 00:57:00;;;;;;;8.13;5.55;;;;;;;;;;4983569;28;20065;-67
2024/01/29 00:59:26;;;;;;;9.25;5.40;;;;;;;;;;4990015;28;20141;-67
2024/01/29 01:01:52;;;;;;;8.93;5.38;;;3.60;1.00;;;;;;4986482;28;20042;-68
2024/01/29 01:04:17;;;;;;;12.05;5.53;;;3.70;1.00;;;;;;4988967;28;20041;-67
2024/01/29 01:06:45;;;;;;;10.93;5.13;;;;;;;;;;4986736;28;20045;-67
2024/01/29 01:09:11;;;;;;;10.93;5.70;;;;;;;;;;4986264;28;20391;-67
2024/01/29 01:11:37;;;;;;;10.60;5.45;;;;;;;;;;4977504;28;20652;-67
2024/01/29 01:14:03;;;;;;;10.57;5.72;;;;;;;;;;4983316;28;20049;-68
2024/01/29 01:16:29;;;;;;;10.02;5.60;;;;;;;;;;4986143;28;20039;-68
2024/01/29 01:18:55;;;;;;;9.98;5.03;;;;;;;;;;4987991;28;20055;-68
2024/01/29 01:21:21;;;;;;;9.98;5.72;;;;;;;;;;4981681;28;20042;-67
2024/01/29 01:23:47;;;;;;;9.27;4.95;;;;;;;;;;4979538;28;20045;-67
2024/01/29 01:26:13;;;;;;;9.02;5.47;;;;;;;;;;4983667;28;20064;-67
2024/01/29 01:28:39;;;;;;;8.75;5.97;;;3.90;1.00;;;;;;4970574;28;20046;-67
2024/01/29 01:31:05;;;;;;;10.30;5.85;;;;;;;;;;4988621;28;20042;-67
2024/01/29 01:33:31;;;;;;;8.80;5.32;;;;;;;;;;4986848;28;20041;-67
2024/01/29 01:35:57;;;;;;;12.07;6.18;;;;;;;;;;4988317;28;20490;-67
2024/01/29 01:38:22;;;;;;;11.02;5.43;;;3.80;1.00;;;;;;4982149;28;20030;-67
2024/01/29 01:40:48;;;;;;;10.75;5.60;;;;;;;;;;4988735;28;20125;-67
2024/01/29 01:43:18;;;;;;;11.40;5.95;;;;;;;;;;4970967;28;20045;-67
2024/01/29 01:45:44;;;;;;;11.02;5.50;;;;;;;;;;4988495;28;20065;-67
2024/01/29 01:48:11;;;;;;;10.60;5.65;;;4.00;1.00;;;;;;4971063;28;20178;-67
2024/01/29 01:50:37;;;;;;;12.30;5.90;;;;;;;;;;4988812;28;20601;-67
2024/01/29 01:53:03;;;;;;;10.43;5.55;;;;;;;;;;4970282;28;20137;-67
2024/01/29 01:55:29;;;;;;;9.25;5.35;;;3.60;1.00;;;;;;4985362;28;20663;-67
2024/01/29 01:57:56;;;;;;;8.48;5.00;;;;;;;;;;4986530;28;20049;-67
2024/01/29 02:00:22;;;;;;;10.02;5.00;;;;;;;;;;4984151;28;20409;-67
2024/01/29 02:02:47;;;;;;;9.55;6.03;;;3.50;1.00;;;;;;4982687;28;20053;-68
2024/01/29 02:05:13;;;;;;;10.73;5.63;;;;;;;;;;4987437;28;20042;-67
2024/01/29 02:07:40;;;;;;;8.73;5.10;;;;;;;;;;4981902;28;20070;-68
2024/01/29 02:10:06;;;;;;;9.93;5.47;;;;;;;;;;4986680;28;20038;-68
2024/01/29 02:12:32;;;;;;;10.45;6.00;;;;;;;;;;4985410;28;20134;-67
2024/01/29 02:14:58;;;;;;;11.52;6.45;;;;;;;;;;4986470;28;20070;-67
2024/01/29 02:17:25;;;;;;;10.38;6.68;;;;;;;;;;4989060;28;20532;-67
2024/01/29 02:19:51;;;;;;;10.75;5.30;;;;;;;;;;4985638;28;20093;-68
2024/01/29 02:22:17;;;;;;;10.52;5.63;;;;;;;;;;4987496;28;20117;-67
2024/01/29 02:24:43;;;;;;;11.25;5.95;;;;;;;;;;4985592;28;20458;-67
2024/01/29 02:27:09;;;;;;;10.68;6.13;;;;;;;;;;4987903;28;20041;-68
2024/01/29 02:29:34;;;;;;;10.65;5.97;;;3.30;1.00;;;;;;4985749;28;20038;-68
2024/01/29 02:32:00;;;;;;;11.55;6.10;;;;;;;;;;4990977;28;20054;-68
2024/01/29 02:34:26;;;;;;;12.45;6.15;;;;;;;;;;4990631;28;20034;-68
2024/01/29 02:36:52;;;;;;;11.70;6.07;;;;;;;;;;4992169;28;20562;-68
2024/01/29 02:39:18;;;;;;;9.95;5.72;;;;;;;;;;4989273;28;20042;-67
2024/01/29 02:41:44;;;;;;;11.25;6.97;;;;;;;;;;4989734;28;20509;-67
2024/01/29 02:44:10;;;;;;;11.93;6.13;;;;;;;;;;4988840;28;20042;-67
2024/01/29 02:46:39;;;;;;;10.27;5.63;;;;;;;;;;4975000;28;20129;-67
2024/01/29 02:49:05;;;;;;;12.05;6.28;;;3.10;5.50;;;;;;4970844;28;20046;-67
2024/01/29 02:51:31;;;;;;;10.15;6.22;;;;;;;;;;4990997;28;20043;-67
2024/01/29 02:53:57;;;;;;;9.27;5.75;;;;;;;;;;4969805;28;20089;-67
2024/01/29 02:56:23;;;;;;;10.10;5.88;;;;;;;;;;4990290;28;20454;-68
2024/01/29 02:58:49;;;;;;;9.98;5.68;;;;;;;;;;4988583;28;20038;-68
2024/01/29 03:01:18;;;;;;;10.93;6.25;;;;;;;;;;4989352;28;21575;-68
2024/01/29 03:03:44;;;;;;;10.52;6.53;;;;;;;;;;4984761;28;20050;-68
2024/01/29 03:06:10;;;;;;;10.35;6.78;;;;;;;;;;4970381;28;20050;-68
2024/01/29 03:08:37;;;;;;;9.57;6.40;;;;;;;;;;4987939;28;20429;-68
2024/01/29 03:11:03;;;;;;;10.32;6.25;;;2.90;37.80;;;;;;4973486;28;20046;-68
2024/01/29 03:13:29;;;;;;;14.10;7.07;;;;;;;;;;4991538;28;20034;-68
2024/01/29 03:15:55;;;;;;;12.13;6.80;;;;;;;;;;4970537;28;20451;-68
2024/01/29 03:18:21;;;;;;;12.40;7.15;;;;;;;;;;4967165;28;20498;-68
2024/01/29 03:20:47;;;;;;;14.20;7.30;;;;;;;;;;4987376;28;20038;-68
2024/01/29 03:23:13;;;;;;;10.35;6.00;;;;;;;;;;4989409;28;20392;-68
2024/01/29 03:25:39;;;;;;;13.40;6.97;;;3.00;46.60;;;;;;4985248;28;20081;-68
2024/01/29 03:28:05;;;;;;;8.32;5.78;;;3.00;63.60;;;;;;4987572;28;20558;-68
2024/01/29 03:30:31;;;;;;;11.45;6.50;;;;;;;;;;5006093;28;20042;-68
2024/01/29 03:32:57;;;;;;;12.70;6.72;;;;;;;;;;4988394;28;20046;-68
2024/01/29 03:35:23;;;;;;;11.23;6.55;;;;;;;;;;4990338;28;20078;-68
2024/01/29 03:37:49;;;;;;;11.70;6.55;;;;;;;;;;4990558;28;20038;-68
2024/01/29 03:40:15;;;;;;;10.40;6.45;;;;;;;;;;4978618;28;20042;-68
2024/01/29 03:42:41;;;;;;;12.68;6.57;;;;;;;;;;4979598;28;20210;-68
2024/01/29 03:45:07;;;;;;;11.50;7.40;;;;;;;;;;4990771;28;20082;-68
2024/01/29 03:47:33;;;;;;;10.10;6.50;;;;;;;;;;4981646;28;20058;-68
2024/01/29 03:49:59;;;;;;;12.55;7.60;;;;;;;;;;4987289;28;20133;-68
2024/01/29 03:52:25;;;;;;;12.27;7.20;;;3.10;20.90;;;;;;4994619;28;20259;-68
2024/01/29 03:54:50;;;;;;;10.40;6.60;;;3.20;1.00;;;;;;4992197;28;20035;-68
2024/01/29 03:57:16;;;;;;;11.63;7.25;;;;;;;;;;4985882;28;20469;-68
2024/01/29 03:59:42;;;;;;;10.82;6.82;;;;;;;;;;4987325;28;20046;-68
2024/01/29 04:02:08;;;;;;;13.63;6.75;;;;;;;;;;4989043;28;20050;-68
2024/01/29 04:04:34;;;;;;;10.77;6.05;;;;;;;;;;4971229;28;20046;-68
2024/01/29 04:07:00;;;;;;;11.82;6.80;;;;;;;;;;4989366;28;20046;-68
2024/01/29 04:09:26;;;;;;;10.20;6.32;;;3.30;25.30;;;;;;4996742;28;20038;-68
2024/01/29 04:11:51;;;;;;;13.70;6.95;;;3.30;12.60;;;;;;4990628;28;20034;-68
2024/01/29 04:14:18;;;;;;;10.75;6.90;;;;;;;;;;4983207;28;20044;-68
2024/01/29 04:16:45;;;;;;;14.40;6.65;;;3.50;8.60;;;;;;4989263;28;20065;-68
2024/01/29 04:19:11;;;;;;;12.07;6.13;;;;;;;;;;4983818;28;20150;-68
2024/01/29 04:21:43;;;;;;;10.75;6.47;;;3.50;22.20;;;;;;4969675;28;20081;-68
2024/01/29 04:24:10;;;;;;;11.70;7.20;;;;;;;;;;4984327;28;20042;-68
2024/01/29 04:26:36;;;;;;;11.20;7.53;;;;;;;;;;4991195;28;20506;-68
2024/01/29 04:29:02;;;;;;;11.63;6.43;;;;;;;;;;4985010;28;20038;-68
2024/01/29 04:31:28;;;;;;;11.70;7.25;;;;;;;;;;4985982;28;20034;-68
2024/01/29 04:33:54;;;;;;;10.52;6.47;;;;;;;;;;4989358;28;20034;-68
2024/01/29 04:36:20;;;;;;;11.35;6.90;;;3.10;28.50;;;;;;4986775;28;20046;-68
2024/01/29 04:38:46;;;;;;;11.50;6.55;;;3.10;39.20;;;;;;4986271;28;20462;-67
2024/01/29 04:41:19;;;;;;;11.85;6.95;;;3.50;38.40;;;;;;4987549;28;20041;-68
2024/01/29 04:43:44;;;;;;;12.27;7.82;;;3.10;41.20;;;;;;4971537;28;20049;-68
2024/01/29 04:46:11;;;;;;;11.35;7.20;;;3.20;34.10;;;;;;4986092;28;20027;-68
2024/01/29 04:48:38;;;;;;;10.88;6.97;;;;;;;;;;4985037;28;20074;-68
2024/01/29 04:51:10;;;;;;;12.35;7.93;;;;;;;;;;4986865;28;20129;-68
2024/01/29 04:53:36;;;;;;;11.60;7.10;;;;;;;;;;4979734;28;20566;-68
2024/01/29 04:56:02;;;;;;;10.02;6.90;;;;;;;;;;4987935;28;20065;-68
2024/01/29 04:58:29;;;;;;;12.93;8.15;;;;;;;;;;4987082;28;20042;-68
2024/01/29 05:00:55;;;;;;;10.27;6.68;;;;;;;;;;4986351;28;20042;-67
2024/01/29 05:03:21;;;;;;;12.57;7.25;;;;;;;;;;4990281;28;20709;-68
2024/01/29 05:05:47;;;;;;;12.00;7.60;;;;;;;;;;4988459;28;20030;-68
2024/01/29 05:08:13;;;;;;;13.45;7.00;;;;;;;;;;4986432;28;20070;-68
2024/01/29 05:10:39;;;;;;;13.60;7.90;;;;;;;;;;4989898;28;20042;-68
2024/01/29 05:13:05;;;;;;;11.20;7.07;;;3.40;28.70;;;;;;4972319;28;20053;-68
2024/01/29 05:15:31;;;;;;;13.52;7.43;;;3.20;34.40;;;;;;4971845;28;20034;-68
2024/01/29 05:17:57;;;;;;;13.63;7.68;;;;;;;;;;4989786;28;20068;-68
2024/01/29 05:20:23;;;;;;;12.57;7.97;;;3.50;26.50;;;;;;4966649;28;20074;-68
2024/01/29 05:22:49;;;;;;;9.57;6.93;;;;;;;;;;4975412;28;20038;-68
2024/01/29 05:25:15;;;;;;;10.75;7.32;;;;;;;;;;4986812;28;20441;-67
2024/01/29 05:27:41;;;;;;;14.98;8.27;;;;;;;;;;4981023;28;20052;-68
2024/01/29 05:30:07;;;;;;;13.73;7.95;;;;;;;;;;4985529;28;20173;-68
2024/01/29 05:32:33;;;;;;;12.68;7.40;;;;;;;;;;4982792;28;20070;-67
2024/01/29 05:35:01;;;;;;;13.98;7.63;;;;;;;;;;4984269;28;20035;-67
2024/01/29 05:37:27;;;;;;;13.25;8.18;;;;;;;;;;4983835;28;20046;-69
2024/01/29 05:39:52;;;;;;;12.77;7.78;;;3.40;62.80;;;;;;4980034;28;20049;-68
2024/01/29 05:42:18;;;;;;;13.80;7.85;;;;;;;;;;4983724;28;20038;-68
2024/01/29 05:44:44;;;;;;;12.50;7.25;;;;;;;;;;4984012;28;20157;-67
2024/01/29 05:47:10;;;;;;;11.13;7.95;;;;;;;;;;4974718;28;20046;-67
2024/01/29 05:49:36;;;;;;;13.35;8.65;;;3.40;74.40;;;;;;4983445;28;20046;-68
2024/01/29 05:52:02;;;;;;;15.77;8.82;;;3.50;61.10;;;;;;4980738;28;20050;-68
2024/01/29 05:54:28;;;;;;;12.93;8.45;;;3.50;60.20;;;;;;4972544;28;20114;-68
2024/01/29 05:56:54;;;;;;;12.65;8.50;;;3.60;62.90;;;;;;4982415;28;20046;-67
2024/01/29 05:59:20;;;;;;;14.00;8.13;;;;;;;;;;4983468;28;20081;-67
2024/01/29 06:01:46;;;;;;;13.00;8.23;;;;;;;;;;4980443;28;20545;-67
2024/01/29 06:04:12;;;;;;;14.95;8.13;;;;;;;;;;4974423;28;20047;-67
2024/01/29 06:06:38;;;;;;;11.98;8.23;;;;;;;;;;4977420;28;20042;-68
2024/01/29 06:09:09;;;;;;;13.90;8.25;;;;;;;;;;4980568;28;20046;-68
2024/01/29 06:11:35;;;;;;;13.50;8.32;;;;;;;;;;4976516;28;20042;-68
2024/01/29 06:14:01;;;;;;;12.07;8.32;;;3.70;53.80;;;;;;4983017;28;20513;-67
2024/01/29 06:16:28;;;;;;;12.10;7.90;;;;;;;;;;4977728;28;20046;-68
2024/01/29 06:18:54;;;;;;;12.85;8.13;;;;;;;;;;4987453;28;20424;-68
2024/01/29 06:21:21;;;;;;;14.45;8.35;;;;;;;;;;4982681;28;20043;-68
2024/01/29 06:23:47;;;;;;;14.27;9.20;;;;;;;;;;4986513;28;20056;-68
2024/01/29 06:26:13;;;;;;;14.23;8.73;;;;;;;;;;4987010;28;20659;-68
2024/01/29 06:28:41;;;;;;;14.07;8.57;;;;;;;;;;4988220;28;20045;-68
2024/01/29 06:31:07;;;;;;;13.07;8.55;;;3.70;70.30;;;;;;4989546;28;20047;-68
2024/01/29 06:33:35;;;;;;;14.10;8.98;;;3.80;65.40;;;;;;4993223;28;20463;-68
2024/01/29 06:36:04;;;;;;;14.75;9.15;;;3.70;67.00;;;;;;4989069;28;20502;-68
2024/01/29 06:38:30;;;;;;;13.27;9.20;;;;;;;;;;4988988;28;20038;-68
2024/01/29 06:40:57;;;;;;;14.55;8.68;;;;;;;;;;4989082;28;20042;-68
2024/01/29 06:43:23;;;;;;;14.32;8.70;;;;;;;;;;4988927;28;20038;-68
2024/01/29 06:45:49;;;;;;;14.20;9.05;;;;;;;;;;4987534;28;20030;-68
2024/01/29 06:48:15;;;;;;;14.90;9.55;;;;;;;;;;4985380;28;20042;-68
2024/01/29 06:50:41;;;;;;;13.35;9.05;;;;;;;;;;4987692;28;20093;-68
2024/01/29 06:53:06;;;;;;;13.70;9.18;;;3.90;92.00;;;;;;4985789;28;20085;-67
2024/01/29 06:55:32;;;;;;;14.40;10.13;;;3.90;93.80;;;;;;4991271;28;20441;-68
2024/01/29 06:57:58;;;;;;;16.15;9.50;;;;;;;;;;4985995;28;20046;-68
2024/01/29 07:00:24;;;;;;;13.20;9.27;;;;;;;;;;4988703;28;20038;-67
2024/01/29 07:02:50;;;;;;;16.23;8.93;;;;;;;;;;4988148;28;20383;-68
2024/01/29 07:05:16;;;;;;;15.20;9.20;;;;;;;;;;4988660;28;20038;-68
2024/01/29 07:07:42;;;;;;;14.77;9.38;;;;;;;;;;4988785;28;20050;-67
2024/01/29 07:10:08;;;;;;;14.35;9.15;;;4.20;99.40;;;;;;4989239;28;20402;-68
2024/01/29 07:12:34;;;;;;;14.68;9.40;;;;;;;;;;4986235;28;20046;-68
2024/01/29 07:15:00;;;;;;;15.43;10.07;;;;;;;;;;4989974;28;20038;-68
2024/01/29 07:17:26;;;;;;;16.05;9.82;;;;;;;;;;4990978;28;20406;-67
2024/01/29 07:19:52;;;;;;;16.65;9.90;;;4.20;99.90;;;;;;4992602;28;20068;-67
2024/01/29 07:22:19;;;;;;;13.93;9.63;;;4.50;99.90;;;;;;4991768;28;20494;-67
2024/01/29 07:24:46;;;;;;;14.48;9.55;;;4.30;99.90;;;;;;4992609;28;20121;-67
2024/01/29 07:27:11;;;;;;;14.27;9.80;;;4.30;99.90;;;;;;4992748;28;20121;-67
2024/01/29 07:29:38;;;;;;;15.48;10.18;;;;;;;;;;4981774;28;20470;-67
2024/01/29 07:32:04;;;;;;;14.25;9.80;;;4.40;99.90;;;;;;4973922;28;20046;-67
2024/01/29 07:34:30;;;;;;;16.33;10.15;;;;;;;;;;4987139;28;20122;-68
2024/01/29 07:36:55;;;;;;;17.30;10.98;;;4.40;97.40;;;;;;4988486;28;20117;-67
2024/01/29 07:39:21;;;;;;;15.68;9.95;;;;;;;;;;4990372;28;20057;-68
2024/01/29 07:41:47;;;;;;;14.52;9.93;;;;;;;;;;4987041;28;20044;-67
2024/01/29 07:44:13;;;;;;;13.18;9.77;;;;;;;;;;4986876;28;20122;-67
2024/01/29 07:46:39;;;;;;;13.88;9.45;;;4.30;99.90;;;;;;4990157;28;20112;-68
2024/01/29 07:49:06;;;;;;;16.90;10.07;;;4.40;99.90;;;;;;4990589;28;20036;-67
2024/01/29 07:51:32;;;;;;;15.65;10.75;;;;;;;;;;4989599;28;20030;-68
2024/01/29 07:53:59;;;;;;;14.60;10.25;;;4.50;99.20;;;;;;4991894;28;20034;-67
2024/01/29 07:56:25;;;;;;;15.68;10.10;;;;;;;;;;4989091;28;20030;-67
2024/01/29 07:58:51;;;;;;;15.35;9.50;;;;;;;;;;4992361;28;20030;-67
2024/01/29 08:01:17;;;;;;;13.77;9.95;;;;;;;;;;4991069;28;20046;-67
2024/01/29 08:03:43;;;;;;;13.98;10.20;;;;;;;;;;4991252;28;20038;-68
2024/01/29 08:06:09;;;;;;;15.48;10.25;;;;;;;;;;4989221;28;20406;-67
2024/01/29 08:08:36;;;;;;;16.48;9.80;;;;;;;;;;4988739;28;20105;-67
2024/01/29 08:11:02;;;;;;;14.90;9.55;;;4.50;98.00;;;;;;4988411;28;20069;-67
2024/01/29 08:13:28;;;;;;;14.95;10.35;;;;;;;;;;4970829;28;20066;-68
2024/01/29 08:15:55;;;;;;;15.13;9.52;;;;;;;;;;4989406;28;20046;-67
2024/01/29 08:18:21;;;;;;;14.02;9.95;;;4.50;98.70;;;;;;4990635;28;20034;-67
2024/01/29 08:20:47;;;;;;;14.45;9.88;;;;;;;;;;4988418;28;20693;-68
2024/01/29 08:23:13;;;;;;;14.15;9.07;;;;;;;;;;4991217;28;20045;-67
2024/01/29 08:25:38;;;;;;;15.02;11.25;;;4.50;99.90;;;;;;4990893;28;20403;-67
2024/01/29 08:28:04;;;;;;;15.52;10.60;;;4.60;99.50;;;;;;4993634;28;20034;-67
2024/01/29 08:30:30;;;;;;;14.27;10.02;;;4.60;99.90;;;;;;4990788;28;20422;-67
2024/01/29 08:32:56;;;;;;;15.75;9.68;;;;;;;;;;4991203;28;20043;-68
2024/01/29 08:35:22;;;;;;;16.27;10.68;;;4.30;94.20;;;;;;4990559;28;20045;-67
2024/01/29 08:37:48;;;;;;;20.90;11.02;;;;;;;;;;4987733;28;20050;-67
2024/01/29 08:40:15;;;;;;;13.88;10.45;;;4.20;97.40;;;;;;4991424;28;20038;-67
2024/01/29 08:42:41;;;;;;;14.98;10.20;;;;;;;;;;4990394;28;20038;-67
2024/01/29 08:45:07;;;;;;;15.52;9.68;;;;;;;;;;4991305;28;20397;-67
2024/01/29 08:47:33;;;;;;;15.90;10.00;;;;;;;;;;4988042;28;20046;-68
2024/01/29 08:49:59;;;;;;;14.30;10.13;;;;;;;;;;4989147;28;20035;-67
2024/01/29 08:52:25;;;;;;;15.55;10.68;;;;;;;;;;4989301;28;20126;-67
2024/01/29 08:54:51;;;;;;;15.95;10.32;;;;;;;;;;4990810;28;20094;-67
2024/01/29 08:57:17;;;;;;;13.90;10.13;;;;;;;;;;4991283;28;20042;-67
2024/01/29 08:59:43;;;;;;;14.60;10.38;;;;;;;;;;4987367;28;20538;-67
2024/01/29 09:02:09;;;;;;;15.43;10.18;;;5.10;78.70;;;;;;4989736;28;20042;-67
2024/01/29 09:04:35;;;;;;;15.98;10.13;;;;;;;;;;4988581;28;20046;-67
2024/01/29 09:07:00;;;;;;;16.65;10.35;;;5.20;67.50;;;;;;4991031;28;20038;-67
2024/01/29 09:09:26;;;;;;;13.68;9.68;;;;;;;;;;4973458;28;20116;-67
2024/01/29 09:11:52;;;;;;;13.35;9.80;;;5.40;71.50;;;;;;4986185;28;20049;-67
2024/01/29 09:14:20;;;;;;;13.98;9.98;;;5.40;77.80;;;;;;4990831;28;20124;-67
2024/01/29 09:16:45;;;;;;;17.20;10.73;;;5.40;55.90;;;;;;4987179;28;20078;-67
2024/01/29 09:19:12;;;;;;;15.50;11.35;;;5.60;61.10;;;;;;4988692;28;20066;-67
2024/01/29 09:21:38;;;;;;;15.30;10.57;;;5.40;51.70;;;;;;4987950;28;20034;-67
2024/01/29 09:24:04;;;;;;;16.38;11.10;;;;;;;;;;4989145;28;20174;-67
2024/01/29 09:26:31;;;;;;;15.20;9.88;;;;;;;;;;4987792;28;20038;-67
2024/01/29 09:28:56;;;;;;;14.00;10.27;;;5.60;53.40;;;;;;4987664;28;20087;-67
2024/01/29 09:31:22;;;;;;;15.23;10.32;;;;;;;;;;4990238;28;20121;-67
2024/01/29 09:33:48;;;;;;;16.77;10.35;;;;;;;;;;4989667;28;20034;-66
2024/01/29 09:36:14;;;;;;;17.27;10.15;;;5.70;58.70;;;;;;4990583;28;20039;-67
2024/01/29 09:38:39;;;;;;;14.77;9.68;;;5.80;61.80;;;;;;4989632;28;20070;-67
2024/01/29 09:41:05;;;;;;;15.63;9.73;;;;;;;;;;4983482;28;20048;-67
2024/01/29 09:43:34;;;;;;;16.30;10.20;;;;;;;;;;4969692;28;20073;-67
2024/01/29 09:46:02;;;;;;;14.40;10.05;;;;;;;;;;4988572;28;20674;-67
2024/01/29 09:48:30;;;;;;;14.38;10.52;;;5.70;38.40;;;;;;4990501;28;20122;-67
2024/01/29 09:50:58;;;;;;;14.95;10.88;;;;;;;;;;4989227;28;20449;-67
2024/01/29 09:53:25;;;;;;;12.60;9.13;;;6.70;41.00;;;;;;4985449;28;20077;-67
2024/01/29 09:55:51;;;;;;;14.20;9.98;;;6.10;27.50;;;;;;4985138;28;20449;-67
2024/01/29 09:58:17;;;;;;;15.68;10.85;;;6.10;16.90;;;;;;4972656;28;20034;-67
2024/01/29 10:00:43;;;;;;;13.02;9.93;;;;;;;;;;4987706;28;20110;-67
2024/01/29 10:03:14;;;;;;;15.65;10.70;;;;;;;;;;4989380;28;20042;-67
2024/01/29 10:05:40;;;;;;;19.52;10.98;;;6.30;34.60;;;;;;4987020;28;20042;-67
2024/01/29 10:08:08;;;;;;;14.38;9.35;;;6.70;31.10;;;;;;4984538;28;20041;-67
2024/01/29 10:10:34;;;;;;;16.48;11.10;;;6.20;13.30;;;;;;4989844;28;20430;-67
2024/01/29 10:13:18;;;;;;;16.23;10.80;;;;;;;;;;4983910;28;20049;-67
2024/01/29 10:15:44;;;;;;;15.45;10.43;;;;;;;;;;4989777;28;20039;-67
2024/01/29 10:18:14;;;;;;;16.60;10.88;;;6.00;23.40;;;;;;4985838;28;20457;-67
2024/01/29 10:20:41;;;;;;;16.55;11.63;;;;;;;;;;4988881;28;20050;-67
2024/01/29 10:23:07;;;;;;;16.90;10.43;;;;;;;;;;4989006;28;20038;-67
2024/01/29 10:25:35;;;;;;;14.73;10.35;;;;;;;;;;4986592;28;20039;-67
2024/01/29 10:28:13;;;;;;;15.65;10.35;;;;;;;;;;4989033;28;20547;-67
2024/01/29 10:30:39;;;;;;;16.27;11.13;;;;;;;;;;4988923;28;20045;-67
2024/01/29 10:33:06;;;;;;;15.55;10.20;;;;;;;;;;4988590;28;20049;-67
2024/01/29 10:35:32;;;;;;;15.60;10.63;;;;;;;;;;4989968;28;20034;-67
2024/01/29 10:38:03;;;;;;;17.60;10.77;;;;;;;;;;4984079;28;20057;-67
2024/01/29 10:40:30;;;;;;;15.88;10.95;;;;;;;;;;4989910;28;20042;-67
2024/01/29 10:42:58;;;;;;;14.27;10.88;;;;;;;;;;4989203;28;20590;-67
2024/01/29 10:45:27;;;;;;;17.85;11.82;;;;;;;;;;4983916;28;20045;-67
2024/01/29 10:48:00;;;;;;;21.67;12.68;;;6.90;30.10;;;;;;4987915;28;20057;-67
2024/01/29 10:50:26;;;;;;;21.33;13.18;;;6.90;38.80;;;;;;4986878;28;20042;-67
2024/01/29 10:52:54;;;;;;;22.95;13.73;;;7.10;58.30;;;;;;4992672;28;20413;-67
2024/01/29 10:55:20;;;;;;;25.85;15.00;;;7.00;77.90;;;;;;4993618;28;20038;-67
2024/01/29 10:57:47;;;;;;;27.88;15.93;;;7.00;87.40;;;;;;4990303;28;20501;-67
2024/01/29 11:00:19;;;;;;;28.33;15.80;;;;;;;;;;4987533;28;20038;-67
2024/01/29 11:02:46;;;;;;;34.28;17.27;;;;;;;;;;4992139;28;20046;-67
2024/01/29 11:05:13;;;;;;;28.90;15.15;;;7.10;99.90;;;;;;4989818;28;20049;-67
2024/01/29 11:07:40;;;;;;;31.88;16.30;;;;;;;;;;4993348;28;20038;-67
2024/01/29 11:10:10;;;;;;;30.90;14.25;;;;;;;;;;4989187;28;20042;-67
2024/01/29 11:12:38;;;;;;;31.63;16.13;;;7.90;99.90;;;;;;4992864;28;20502;-67
2024/01/29 11:15:07;;;;;;;30.55;16.10;;;7.40;99.90;;;;;;4992260;28;20053;-67
2024/01/29 11:17:33;;;;;;;31.52;15.93;;;7.30;99.90;;;;;;4992995;28;20042;-67
2024/01/29 11:20:02;;;;;;;32.78;16.33;;;7.40;99.90;;;;;;4992314;28;20042;-67
2024/01/29 11:22:36;;;;;;;29.98;16.10;;;;;;;;;;4992141;28;20438;-67
2024/01/29 11:25:12;;;;;;;29.65;14.90;;;7.20;99.90;;;;;;4990095;28;20053;-67
2024/01/29 11:27:38;;;;;;;32.92;16.88;;;;;;;;;;4988754;28;20077;-67
2024/01/29 11:30:16;;;;;;;29.75;16.52;;;;;;;;;;4992255;28;20121;-67
2024/01/29 11:32:41;;;;;;;34.50;17.52;;;7.30;99.90;;;;;;4988779;28;20130;-67
2024/01/29 11:35:13;;;;;;;34.67;18.35;;;8.20;99.90;;;;;;4992276;28;20121;-67
2024/01/29 11:37:39;;;;;;;41.20;20.17;;;7.30;99.90;;;;;;4989331;28;20186;-67
2024/01/29 11:40:11;;;;;;;48.88;22.80;;;;;;;;;;4991755;28;20541;-67
2024/01/29 11:42:36;;;;;;;53.08;22.50;;;7.20;99.90;;;;;;4989592;28;20046;-67
2024/01/29 11:45:03;;;;;;;57.95;24.65;;;7.20;99.90;;;;;;4992095;28;20454;-67
2024/01/29 11:47:29;;;;;;;61.45;24.58;;;7.40;99.90;;;;;;4992474;28;20034;-67
2024/01/29 11:49:55;;;;;;;55.97;24.38;;;;;;;;;;4991436;28;20046;-67
2024/01/29 11:52:21;;;;;;;62.33;24.90;;;;;;;;;;4990375;28;20085;-67
2024/01/29 11:54:47;;;;;;;54.03;23.75;;;;;;;;;;4989274;28;20038;-67
2024/01/29 11:57:13;;;;;;;41.80;20.58;;;7.30;99.90;;;;;;4992325;28;20457;-67
2024/01/29 11:59:45;;;;;;;39.50;19.63;;;7.50;99.90;;;;;;4988253;28;20082;-67
2024/01/29 12:02:11;;;;;;;29.08;17.10;;;;;;;;;;4990051;28;20125;-67
2024/01/29 12:04:37;;;;;;;35.70;17.95;;;;;;;;;;4978381;28;20038;-67
2024/01/29 12:07:03;;;;;;;36.08;16.58;;;;;;;;;;4991523;28;20041;-67
2024/01/29 12:09:30;;;;;;;29.48;15.80;;;;;;;;;;4990685;28;20097;-67
2024/01/29 12:11:56;;;;;;;41.67;17.15;;;7.30;99.90;;;;;;4983238;28;20043;-67
2024/01/29 12:14:22;;;;;;;38.75;18.48;;;;;;;;;;4974665;28;20026;-67
2024/01/29 12:16:48;;;;;;;36.88;16.52;;;;;;;;;;4986933;28;20093;-67
2024/01/29 12:19:14;;;;;;;40.60;17.27;;;;;;;;;;4991377;28;20083;-67
2024/01/29 12:21:42;;;;;;;36.60;16.08;;;;;;;;;;4988608;28;20093;-67
2024/01/29 12:24:09;;;;;;;30.33;15.23;;;7.50;99.90;;;;;;4990578;28;20042;-67
2024/01/29 12:26:38;;;;;;;29.52;15.10;;;7.60;99.90;;;;;;4990177;28;20050;-67
2024/01/29 12:29:04;;;;;;;20.00;12.07;;;7.60;99.90;;;;;;4990891;28;20401;-67
2024/01/29 12:31:30;;;;;;;21.73;12.02;;;;;;;;;;4987475;28;20406;-67
2024/01/29 12:33:58;;;;;;;17.15;11.23;;;;;;;;;;4989972;28;20039;-67
2024/01/29 12:36:24;;;;;;;18.73;11.02;;;7.70;64.70;;;;;;4991796;28;20113;-67
2024/01/29 12:38:54;;;;;;;20.73;12.63;;;;;;;;;;4985249;28;20117;-67
2024/01/29 12:41:20;;;;;;;18.52;11.18;;;;;;;;;;4988507;28;20443;-67
2024/01/29 12:43:50;;;;;;;18.30;11.30;;;8.30;52.80;;;;;;4986407;28;20049;-67
2024/01/29 12:46:16;;;;;;;16.95;11.70;;;;;;;;;;4990595;28;20072;-67
2024/01/29 12:48:43;;;;;;;15.88;11.40;;;8.00;42.60;;;;;;4991488;28;20529;-67
2024/01/29 12:51:11;;;;;;;19.48;12.27;;;8.00;8.50;;;;;;4989263;28;20039;-67
2024/01/29 12:53:37;;;;;;;18.42;12.50;;;;;;;;;;4991365;28;20045;-67
2024/01/29 12:56:03;;;;;;;16.13;11.98;;;7.70;18.00;;;;;;4973242;28;20042;-67
2024/01/29 12:58:28;;;;;;;15.57;11.10;;;7.80;31.20;;;;;;4991444;28;20402;-67
2024/01/29 13:00:54;;;;;;;16.08;12.23;;;;;;;;;;4985127;28;20042;-67
2024/01/29 13:03:20;;;;;;;17.10;11.50;;;8.00;33.70;;;;;;4989064;28;20038;-67
2024/01/29 13:05:46;;;;;;;16.30;11.88;;;7.80;29.70;;;;;;4986702;28;20053;-67
2024/01/29 13:08:12;;;;;;;16.88;11.32;;;;;;;;;;4982248;28;20066;-67
2024/01/29 13:10:39;;;;;;;19.35;11.80;;;;;;;;;;4987899;28;20129;-67
2024/01/29 13:13:10;;;;;;;16.67;12.68;;;8.50;16.10;;;;;;4988979;28;20467;-67
2024/01/29 13:15:36;;;;;;;21.42;12.85;;;;;;;;;;4991179;28;20042;-67
2024/01/29 13:18:03;;;;;;;19.15;13.02;;;;;;;;;;4989684;28;20049;-67
2024/01/29 13:20:29;;;;;;;17.52;12.15;;;8.00;38.40;;;;;;4988715;28;20046;-67
2024/01/29 13:22:55;;;;;;;16.75;12.48;;;;;;;;;;4990234;28;20409;-67
2024/01/29 13:25:22;;;;;;;16.92;12.52;;;;;;;;;;4987418;28;20034;-67
2024/01/29 13:27:48;;;;;;;16.65;12.52;;;;;;;;;;4990954;28;20053;-67
2024/01/29 13:30:14;;;;;;;17.65;12.68;;;;;;;;;;4989883;28;20085;-67
2024/01/29 13:32:40;;;;;;;16.50;11.15;;;;;;;;;;4990226;28;20042;-67
2024/01/29 13:35:07;;;;;;;18.73;13.45;;;;;;;;;;4994286;28;20054;-67
2024/01/29 13:37:33;;;;;;;18.40;13.23;;;;;;;;;;4986791;28;20043;-67
2024/01/29 13:39:59;;;;;;;17.38;12.70;;;;;;;;;;4989736;28;20121;-67
2024/01/29 13:42:25;;;;;;;19.67;13.10;;;;;;;;;;4993564;28;20045;-67
2024/01/29 13:44:52;;;;;;;16.90;12.13;;;;;;;;;;4989787;28;20126;-67
2024/01/29 13:47:18;;;;;;;17.52;12.40;;;;;;;;;;4989404;28;20060;-67